Time;durP1;ratioP1;P1;durP2;ratioP2;P2;SDS_P1;SDS_P2;PMS_P1;PMS_P2;Temp;Humidity;BMP_temperature;BMP_pressure;BME280_temperature;BME280_humidity;BME280_pressure;Samples;Min_cycle;Max_cycle;Signal;HPM_P1;HPM_P2
2022/11/10 00:02:36;;;;;;;16.37;7.28;;;;;;;6.59;98.04;99710.09;1742282;81;21506;-78
2022/11/10 00:05:20;;;;;;;16.45;7.45;;;;;;;6.57;98.64;99719.13;1749456;80;20957;-78
2022/11/10 00:08:09;;;;;;;13.95;6.72;;;;;;;6.56;99.13;99712.26;1742848;80;21521;-78
2022/11/10 00:10:57;;;;;;;18.85;7.25;;;;;;;6.54;98.79;99719.11;1752163;81;20937;-77
2022/11/10 00:17:00;;;;;;;14.68;6.35;;;;;;;6.52;98.60;99718.25;1747927;80;20965;-76
2022/11/10 00:19:44;;;;;;;17.10;7.62;;;;;;;6.53;98.35;99710.95;1766145;81;21765;-78
2022/11/10 00:22:29;;;;;;;17.73;7.22;;;;;;;6.57;99.24;99719.57;1759591;80;20977;-78
2022/11/10 00:25:14;;;;;;;16.77;7.53;;;;;;;6.59;99.11;99720.44;1763136;81;20992;-78
2022/11/10 00:27:59;;;;;;;16.62;7.67;;;;;;;6.66;99.45;99714.83;1751292;80;20953;-78
2022/11/10 00:30:43;;;;;;;17.32;7.45;;;;;;;6.72;99.03;99713.53;1742066;80;20972;-77
2022/11/10 00:33:28;;;;;;;16.60;7.67;;;;;;;6.76;99.39;99716.14;1751215;81;20988;-78
2022/11/10 00:36:12;;;;;;;16.70;7.45;;;;;;;6.79;99.03;99713.98;1743342;81;20976;-78
2022/11/10 00:38:57;;;;;;;15.65;7.03;;;;;;;6.84;99.12;99710.09;1749400;81;20981;-78
2022/11/10 00:41:42;;;;;;;18.77;7.67;;;;;;;6.88;99.23;99712.67;1744231;80;20977;-77
2022/11/10 00:44:26;;;;;;;18.50;7.95;;;;;;;6.94;99.28;99713.98;1744591;80;21009;-77
2022/11/10 00:47:12;;;;;;;22.30;9.98;;;;;;;7.01;99.25;99712.69;1750757;81;21600;-78
2022/11/10 00:49:56;;;;;;;20.17;9.38;;;;;;;7.04;98.38;99712.23;1751486;80;21012;-78
2022/11/10 00:52:41;;;;;;;19.40;9.10;;;;;;;7.04;98.66;99712.67;1756795;81;21028;-78
2022/11/10 00:55:25;;;;;;;20.77;9.35;;;;;;;7.07;98.79;99710.95;1738741;81;20972;-78
2022/11/10 00:58:10;;;;;;;24.35;9.95;;;;;;;7.08;98.41;99712.69;1746804;80;21571;-77
2022/11/10 01:01:03;;;;;;;22.13;9.70;;;;;;;7.12;98.98;99716.99;1754691;80;21052;-78
2022/11/10 01:03:49;;;;;;;19.52;8.50;;;;;;;7.15;98.86;99715.67;1752551;80;21044;-80
2022/11/10 01:06:35;;;;;;;20.02;9.45;;;;;;;7.14;98.96;99709.20;1740393;80;21007;-78
2022/11/10 01:09:20;;;;;;;19.48;9.53;;;;;;;7.12;98.54;99705.36;1743406;81;21492;-78
2022/11/10 01:12:05;;;;;;;16.07;7.97;;;;;;;7.12;98.76;99708.34;1734872;81;21020;-78
2022/11/10 01:14:49;;;;;;;22.20;8.88;;;;;;;7.10;98.43;99707.48;1744094;80;21017;-80
2022/11/10 01:17:35;;;;;;;24.07;9.80;;;;;;;7.05;97.15;99706.66;1764098;81;21064;-78
2022/11/10 01:20:20;;;;;;;19.65;9.20;;;;;;;6.98;97.47;99707.06;1748911;80;21008;-80
2022/11/10 01:23:05;;;;;;;25.60;9.30;;;;;;;6.96;98.42;99703.22;1736851;81;20981;-77
2022/11/10 01:25:50;;;;;;;20.80;9.33;;;;;;;6.94;97.90;99703.65;1747974;81;21083;-80
2022/11/10 01:28:36;;;;;;;23.02;9.75;;;;;;;6.93;98.11;99703.20;1738580;81;21036;-78
2022/11/10 01:31:21;;;;;;;20.43;8.55;;;;;;;6.92;98.34;99702.79;1747947;81;21000;-77
2022/11/10 01:34:07;;;;;;;19.62;8.58;;;;;;;6.92;99.24;99708.37;1734600;80;21096;-78
2022/11/10 01:36:53;;;;;;;22.70;9.08;;;;;;;6.93;98.44;99701.06;1755764;80;21005;-79
2022/11/10 01:39:38;;;;;;;22.98;9.68;;;;;;;6.96;98.16;99703.63;1738925;80;21183;-78
2022/11/10 01:42:30;;;;;;;19.40;9.03;;;;;;;6.97;99.38;99701.05;1751575;80;21028;-79
2022/11/10 01:45:46;;;;;;;24.52;10.25;;;;;;;7.00;99.43;99703.20;1744533;80;21107;-77
2022/11/10 01:48:56;;;;;;;18.10;8.23;;;;;;;7.02;98.91;99696.30;1741504;80;21026;-80
2022/11/10 01:51:53;;;;;;;17.85;7.78;;;;;;;6.96;98.56;99699.34;1750649;81;21104;-77
2022/11/10 01:54:42;;;;;;;15.78;6.85;;;;;;;6.88;97.92;99691.99;1736672;80;21112;-80
2022/11/10 01:57:27;;;;;;;25.80;9.40;;;;;;;6.77;97.99;99693.30;1747517;81;21302;-78
2022/11/10 02:00:14;;;;;;;19.98;8.15;;;;;;;6.74;98.58;99695.91;1741610;80;21084;-79
2022/11/10 02:03:12;;;;;;;17.73;7.90;;;;;;;6.78;98.86;99694.16;1747415;81;21048;-77
2022/11/10 02:05:58;;;;;;;17.02;7.42;;;;;;;6.82;99.17;99693.73;1738709;80;21008;-77
2022/11/10 02:08:44;;;;;;;23.45;8.68;;;;;;;6.83;98.81;99689.86;1743090;81;21532;-80
2022/11/10 02:11:31;;;;;;;18.20;7.42;;;;;;;6.83;98.41;99692.45;1740250;81;21520;-77
2022/11/10 02:14:16;;;;;;;18.65;8.93;;;;;;;6.80;98.50;99692.43;1752195;80;21781;-77
2022/11/10 02:17:01;;;;;;;18.80;7.58;;;;;;;6.82;98.86;99694.58;1728633;80;20970;-77
2022/11/10 02:19:45;;;;;;;15.72;6.85;;;;;;;6.87;99.04;99693.31;1737251;80;20988;-78
2022/11/10 02:22:31;;;;;;;18.52;8.58;;;;;;;6.85;98.59;99698.47;1747049;81;20977;-77
2022/11/10 02:25:20;;;;;;;21.45;9.35;;;;;;;6.88;98.40;99697.16;1735528;80;21939;-78
2022/11/10 02:28:05;;;;;;;22.25;9.98;;;;;;;6.83;98.33;99701.49;1739968;81;20985;-78
2022/11/10 02:30:51;;;;;;;17.73;8.13;;;;;;;6.82;98.67;99699.75;1754969;80;21028;-78
2022/11/10 02:33:36;;;;;;;19.45;7.87;;;;;;;6.85;98.35;99708.81;1752123;80;21478;-77
2022/11/10 02:36:20;;;;;;;16.25;7.70;;;;;;;6.79;97.51;99714.42;1735635;81;20956;-78
2022/11/10 02:39:05;;;;;;;17.82;7.95;;;;;;;6.70;97.79;99710.09;1742147;80;21023;-79
2022/11/10 02:41:49;;;;;;;18.12;8.53;;;;;;;6.69;98.71;99710.97;1724323;82;20964;-78
2022/11/10 02:44:34;;;;;;;14.60;7.03;;;;;;;6.67;98.48;99704.50;1735305;80;21887;-82
2022/11/10 02:47:19;;;;;;;16.55;7.12;;;;;;;6.64;98.34;99704.92;1750088;82;21044;-78
2022/11/10 02:50:04;;;;;;;16.65;7.20;;;;;;;6.59;97.82;99708.81;1744294;80;20995;-77
2022/11/10 02:52:49;;;;;;;19.77;8.05;;;;;;;6.56;97.58;99701.92;1729044;82;21556;-78
2022/11/10 02:55:34;;;;;;;20.00;7.22;;;;;;;6.52;97.76;99711.80;1731890;82;20992;-77
2022/11/10 02:58:19;;;;;;;18.70;7.65;;;;;;;6.52;98.09;99707.92;1722320;82;21008;-76
2022/11/10 03:01:05;;;;;;;14.47;6.87;;;;;;;6.56;98.26;99717.83;1735286;82;21083;-79
2022/11/10 03:03:50;;;;;;;18.98;7.83;;;;;;;6.57;98.54;99720.86;1741372;82;20991;-78
2022/11/10 03:06:35;;;;;;;17.50;6.97;;;;;;;6.59;98.40;99717.85;1734526;80;21543;-78
2022/11/10 03:09:20;;;;;;;19.80;8.15;;;;;;;6.56;98.39;99716.13;1729413;80;20960;-78
2022/11/10 03:12:05;;;;;;;16.27;7.33;;;;;;;6.55;98.35;99727.31;1731604;82;21019;-77
2022/11/10 03:14:50;;;;;;;18.60;7.50;;;;;;;6.53;98.37;99721.72;1679551;85;21577;-77
2022/11/10 03:17:36;;;;;;;17.92;7.20;;;;;;;6.52;98.86;99722.12;1722511;80;21523;-77
2022/11/10 03:20:21;;;;;;;19.52;8.93;;;;;;;6.53;98.32;99722.58;1737962;80;21062;-78
2022/11/10 03:23:07;;;;;;;21.42;7.92;;;;;;;6.55;98.86;99726.02;1719282;82;20995;-80
2022/11/10 03:25:52;;;;;;;20.27;9.20;;;;;;;6.57;98.34;99726.03;1721421;80;21063;-77
2022/11/10 03:28:39;;;;;;;18.05;8.68;;;;;;;6.57;98.31;99728.61;1718329;82;21059;-78
2022/11/10 03:31:24;;;;;;;23.18;9.15;;;;;;;6.61;98.67;99721.73;1723726;82;21037;-79
2022/11/10 03:34:09;;;;;;;19.52;8.90;;;;;;;6.69;98.51;99727.77;1738404;82;21072;-77
2022/11/10 03:36:54;;;;;;;24.55;11.65;;;;;;;6.70;98.70;99729.47;1723125;80;21393;-79
2022/11/10 03:39:39;;;;;;;24.70;9.90;;;;;;;6.72;98.84;99727.31;1728158;80;21072;-79
2022/11/10 03:42:25;;;;;;;22.40;9.10;;;;;;;6.80;99.13;99728.61;1748200;80;20989;-80
2022/11/10 03:45:12;;;;;;;19.57;8.55;;;;;;;6.86;99.02;99723.44;1745454;80;21041;-77
2022/11/10 03:47:57;;;;;;;23.62;9.93;;;;;;;6.89;98.96;99725.19;1751367;81;21053;-77
2022/11/10 03:50:41;;;;;;;20.35;9.60;;;;;;;6.93;99.04;99713.98;1737700;81;21302;-78
2022/11/10 03:53:26;;;;;;;25.23;10.82;;;;;;;6.95;98.55;99722.59;1748017;81;21571;-79
2022/11/10 03:56:12;;;;;;;25.82;10.35;;;;;;;6.87;98.91;99721.30;1759561;80;21091;-79
2022/11/10 03:58:57;;;;;;;22.15;10.23;;;;;;;6.82;97.99;99720.42;1754024;81;21004;-79
2022/11/10 04:01:42;;;;;;;22.87;9.68;;;;;;;6.79;97.87;99717.86;1740133;80;21092;-79
2022/11/10 04:10:37;;;;;;;21.07;9.20;;;;;;;6.56;98.48;99721.30;1736658;81;21037;-78
2022/11/10 04:16:25;;;;;;;24.18;10.58;;;;;;;6.46;98.23;99726.00;1736403;80;21000;-77
2022/11/10 04:19:09;;;;;;;23.77;9.15;;;;;;;6.42;99.15;99726.00;1744519;81;21093;-79
2022/11/10 04:21:55;;;;;;;21.33;8.98;;;;;;;6.39;98.32;99725.57;1736449;81;21005;-80
2022/11/10 04:24:39;;;;;;;19.90;7.97;;;;;;;6.36;98.48;99726.84;1745777;81;21310;-79
2022/11/10 04:27:24;;;;;;;22.73;9.48;;;;;;;6.35;98.30;99735.02;1737347;81;22475;-77
2022/11/10 04:30:10;;;;;;;19.50;8.48;;;;;;;6.33;99.15;99734.59;1736780;81;21040;-79
2022/11/10 04:32:55;;;;;;;24.30;9.60;;;;;;;6.35;99.51;99735.02;1740405;81;21028;-80
2022/11/10 04:35:40;;;;;;;24.52;10.98;;;;;;;6.38;99.28;99739.33;1747743;80;21062;-79
2022/11/10 04:38:25;;;;;;;19.98;8.90;;;;;;;6.41;99.18;99738.50;1746907;80;21012;-79
2022/11/10 04:41:11;;;;;;;19.55;9.00;;;;;;;6.40;99.06;99737.61;1740752;80;21013;-80
2022/11/10 04:43:58;;;;;;;22.87;10.30;;;;;;;6.42;99.16;99743.64;1749793;80;21048;-80
2022/11/10 04:46:43;;;;;;;18.77;8.85;;;;;;;6.45;98.87;99740.22;1737745;80;20957;-77
2022/11/10 04:49:28;;;;;;;20.02;8.73;;;;;;;6.47;98.73;99739.36;1744248;80;21040;-78
2022/11/10 04:52:12;;;;;;;24.25;9.60;;;;;;;6.43;98.88;99746.67;1762053;80;21039;-77
2022/11/10 04:54:56;;;;;;;22.45;7.78;;;;;;;6.46;99.02;99750.97;1746224;80;21012;-77
2022/11/10 04:57:42;;;;;;;23.38;8.28;;;;;;;6.52;98.80;99747.11;1759220;80;21820;-78
2022/11/10 05:00:26;;;;;;;25.88;8.15;;;;;;;6.47;98.43;99749.69;1748615;80;20960;-77
2022/11/10 05:03:12;;;;;;;18.90;8.18;;;;;;;6.47;98.56;99751.42;1739432;80;20980;-77
2022/11/10 05:05:56;;;;;;;19.20;8.55;;;;;;;6.49;98.79;99758.30;1747220;80;21492;-78
2022/11/10 05:08:42;;;;;;;21.70;8.88;;;;;;;6.51;98.54;99755.73;1738090;81;20973;-76
2022/11/10 05:11:27;;;;;;;23.80;10.68;;;;;;;6.56;98.46;99756.18;1754404;80;21488;-77
2022/11/10 05:14:12;;;;;;;21.10;10.40;;;;;;;6.55;98.35;99759.61;1747844;80;20988;-77
2022/11/10 05:16:56;;;;;;;21.80;10.43;;;;;;;6.62;98.36;99763.48;1753281;80;21009;-78
2022/11/10 05:19:41;;;;;;;22.75;11.18;;;;;;;6.60;98.32;99770.38;1737486;81;21024;-77
2022/11/10 05:22:26;;;;;;;24.98;10.00;;;;;;;6.63;98.30;99762.64;1746895;81;21008;-79
2022/11/10 05:25:12;;;;;;;22.90;9.83;;;;;;;6.60;98.08;99764.77;1758196;80;21539;-80
2022/11/10 05:27:56;;;;;;;24.00;11.10;;;;;;;6.56;97.87;99765.22;1742851;81;21504;-79
2022/11/10 05:30:42;;;;;;;23.73;10.80;;;;;;;6.49;97.71;99770.37;1741919;80;21020;-78
2022/11/10 05:33:27;;;;;;;24.32;11.40;;;;;;;6.46;98.15;99776.36;1740163;80;21552;-80
2022/11/10 05:36:13;;;;;;;26.90;10.32;;;;;;;6.42;97.94;99781.09;1755499;81;21036;-78
2022/11/10 05:38:58;;;;;;;20.00;9.60;;;;;;;6.39;97.58;99782.39;1745498;80;21567;-79
2022/11/10 05:41:43;;;;;;;20.97;8.85;;;;;;;6.34;97.80;99783.64;1724165;82;22293;-79
2022/11/10 05:44:28;;;;;;;22.55;9.93;;;;;;;6.33;97.99;99790.13;1738536;80;21112;-81
2022/11/10 05:47:13;;;;;;;21.10;9.88;;;;;;;6.36;97.94;99794.84;1727626;80;21091;-80
2022/11/10 05:49:58;;;;;;;20.43;8.80;;;;;;;6.35;97.98;99790.99;1729659;82;21038;-80
2022/11/10 05:52:47;;;;;;;21.37;9.70;;;;;;;6.37;98.09;99791.86;1737225;82;21224;-77
2022/11/10 05:55:33;;;;;;;21.05;9.13;;;;;;;6.37;98.15;99803.48;1718961;80;21028;-80
2022/11/10 05:58:18;;;;;;;24.57;11.12;;;;;;;6.43;98.14;99800.91;1724767;82;21512;-79
2022/11/10 06:01:02;;;;;;;21.23;9.75;;;;;;;6.47;98.17;99807.81;1724648;80;21557;-77
2022/11/10 06:03:48;;;;;;;21.52;10.53;;;;;;;6.48;98.05;99809.52;1731622;80;21079;-79
2022/11/10 06:06:32;;;;;;;26.87;10.18;;;;;;;6.48;98.04;99808.23;1744561;80;21035;-79
2022/11/10 06:09:17;;;;;;;20.02;9.05;;;;;;;6.55;98.27;99821.61;1730465;82;21056;-77
2022/11/10 06:12:03;;;;;;;25.77;11.33;;;;;;;6.56;98.20;99825.05;1718672;80;21163;-78
2022/11/10 06:14:48;;;;;;;26.12;11.88;;;;;;;6.61;98.30;99825.94;1726218;80;21507;-79
2022/11/10 06:17:37;;;;;;;26.80;11.30;;;;;;;6.66;98.39;99832.39;1733804;80;21044;-80
2022/11/10 06:20:22;;;;;;;24.77;9.73;;;;;;;6.73;98.25;99831.56;1731919;82;21023;-79
2022/11/10 06:23:10;;;;;;;20.90;9.75;;;;;;;6.79;98.24;99834.16;1742116;80;21506;-78
2022/11/10 06:25:57;;;;;;;21.87;9.58;;;;;;;6.85;98.52;99840.63;1726445;80;20983;-79
2022/11/10 06:28:42;;;;;;;23.07;9.78;;;;;;;6.95;98.62;99839.78;1721996;82;20993;-78
2022/11/10 06:31:27;;;;;;;23.60;9.70;;;;;;;7.01;98.18;99849.27;1726746;82;21879;-78
2022/11/10 06:34:12;;;;;;;27.37;11.45;;;;;;;7.08;98.25;99855.30;1723978;82;21012;-78
2022/11/10 06:36:57;;;;;;;29.45;11.68;;;;;;;7.12;98.10;99850.16;1723227;82;21358;-79
2022/11/10 06:39:42;;;;;;;26.33;11.75;;;;;;;7.15;97.75;99850.58;1722517;80;21064;-80
2022/11/10 06:42:27;;;;;;;27.52;12.43;;;;;;;7.16;97.51;99852.29;1718208;80;21034;-80
2022/11/10 06:45:11;;;;;;;29.30;12.37;;;;;;;7.11;96.87;99851.45;1722425;82;21020;-77
2022/11/10 06:48:09;;;;;;;26.48;11.20;;;;;;;7.11;96.89;99860.05;1731293;80;21050;-80
2022/11/10 06:50:54;;;;;;;31.42;12.73;;;;;;;7.03;95.96;99867.38;1733636;80;21071;-80
2022/11/10 06:53:39;;;;;;;30.57;12.40;;;;;;;6.88;96.36;99860.00;1718331;80;21095;-80
2022/11/10 06:56:25;;;;;;;30.37;13.78;;;;;;;6.82;96.24;99864.31;1728555;80;21123;-79
2022/11/10 06:59:09;;;;;;;32.60;14.18;;;;;;;6.78;97.06;99862.14;1737270;80;21018;-79
2022/11/10 07:01:54;;;;;;;40.90;17.60;;;;;;;6.73;97.27;99870.33;1743194;80;21645;-80
2022/11/10 07:04:41;;;;;;;25.50;10.98;;;;;;;6.70;97.36;99871.16;1665158;84;21056;-78
2022/11/10 07:07:26;;;;;;;22.65;9.73;;;;;;;6.66;96.31;99872.01;1687404;82;21064;-81
2022/11/10 07:10:11;;;;;;;18.70;8.45;;;;;;;6.60;96.87;99868.11;1681913;84;22167;-78
2022/11/10 07:12:58;;;;;;;27.22;10.75;;;;;;;6.56;96.79;99868.97;1691233;83;21095;-79
2022/11/10 07:15:43;;;;;;;25.72;9.75;;;;;;;6.55;97.26;99876.30;1686153;84;21000;-79
2022/11/10 07:18:28;;;;;;;23.67;9.90;;;;;;;6.55;97.44;99869.84;1681583;84;21068;-79
2022/11/10 07:21:13;;;;;;;29.23;11.40;;;;;;;6.60;97.54;99873.72;1684786;84;21004;-79
2022/11/10 07:23:58;;;;;;;28.30;12.65;;;;;;;6.63;97.65;99883.64;1685398;84;21093;-79
2022/11/10 07:26:43;;;;;;;27.55;12.03;;;;;;;6.68;97.69;99892.69;1680685;84;21348;-81
2022/11/10 07:29:28;;;;;;;32.70;12.18;;;;;;;6.70;97.67;99884.52;1678470;84;21111;-79
2022/11/10 07:32:13;;;;;;;42.62;15.13;;;;;;;6.70;97.71;99890.97;1678377;84;21027;-77
2022/11/10 07:34:58;;;;;;;27.80;10.65;;;;;;;6.72;97.91;99888.82;1685793;84;21092;-80
2022/11/10 07:37:44;;;;;;;26.70;9.95;;;;;;;6.78;98.02;99890.56;1688402;84;21017;-80
2022/11/10 07:40:30;;;;;;;23.00;9.05;;;;;;;6.74;97.49;99884.95;1684826;83;21690;-77
2022/11/10 07:43:14;;;;;;;22.80;10.43;;;;;;;6.76;97.48;99892.28;1695441;83;21497;-80
2022/11/10 07:46:00;;;;;;;26.60;10.45;;;;;;;6.74;97.82;99891.42;1693752;83;21012;-80
2022/11/10 07:48:45;;;;;;;25.43;9.65;;;;;;;6.83;97.94;99901.80;1690948;83;21586;-79
2022/11/10 07:51:30;;;;;;;24.57;10.85;;;;;;;6.82;97.82;99887.13;1697419;83;21088;-81
2022/11/10 07:54:14;;;;;;;24.50;9.45;;;;;;;6.87;98.03;99897.50;1689430;83;21060;-78
2022/11/10 07:57:00;;;;;;;33.88;12.90;;;;;;;6.91;97.84;99894.92;1692115;83;21059;-80
2022/11/10 07:59:45;;;;;;;33.35;13.00;;;;;;;6.92;97.90;99895.77;1697760;83;21084;-80
2022/11/10 08:02:30;;;;;;;24.32;10.75;;;;;;;6.98;97.90;99890.62;1686914;83;21060;-80
2022/11/10 08:05:15;;;;;;;26.65;12.65;;;;;;;7.02;97.71;99887.62;1694139;83;21090;-79
2022/11/10 08:08:01;;;;;;;34.75;12.10;;;;;;;7.03;97.40;99887.63;1688942;83;21047;-80
2022/11/10 08:10:46;;;;;;;25.27;11.22;;;;;;;7.07;97.47;99891.09;1695616;82;21044;-80
2022/11/10 08:13:31;;;;;;;28.23;12.18;;;;;;;7.12;97.86;99886.77;1698537;83;22303;-79
2022/11/10 08:16:17;;;;;;;27.22;11.93;;;;;;;7.17;97.63;99890.23;1700498;83;21078;-80
2022/11/10 08:19:02;;;;;;;28.12;12.50;;;;;;;7.22;97.30;99892.41;1701251;83;21028;-79
2022/11/10 08:21:47;;;;;;;33.60;13.50;;;;;;;7.23;97.31;99888.09;1692466;83;21039;-81
2022/11/10 08:24:32;;;;;;;28.65;11.53;;;;;;;7.22;96.52;99892.41;1699606;83;21089;-80
2022/11/10 08:27:17;;;;;;;27.77;10.70;;;;;;;7.23;96.49;99900.59;1702117;83;21040;-78
2022/11/10 08:30:02;;;;;;;30.65;11.63;;;;;;;7.23;96.37;99900.59;1694485;83;21661;-80
2022/11/10 08:32:47;;;;;;;28.45;10.60;;;;;;;7.25;96.57;99893.69;1691039;82;21036;-79
2022/11/10 08:35:36;;;;;;;25.90;10.75;;;;;;;7.30;96.46;99902.33;1693287;83;21048;-81
2022/11/10 08:38:23;;;;;;;28.50;11.28;;;;;;;7.32;96.24;99899.72;1686469;83;21038;-80
2022/11/10 08:41:08;;;;;;;24.00;10.40;;;;;;;7.36;96.33;99903.63;1691123;83;21076;-79
2022/11/10 08:43:53;;;;;;;24.45;10.75;;;;;;;7.42;96.35;99910.95;1692058;83;21095;-80
2022/11/10 08:46:38;;;;;;;35.38;15.00;;;;;;;7.39;96.01;99902.76;1691350;83;21563;-79
2022/11/10 08:49:23;;;;;;;45.15;16.55;;;;;;;7.56;96.41;99914.42;1698051;83;21056;-80
2022/11/10 08:52:09;;;;;;;30.37;12.28;;;;;;;7.60;95.76;99912.27;1695364;83;21162;-80
2022/11/10 08:54:54;;;;;;;26.65;10.72;;;;;;;7.64;95.49;99907.93;1691815;83;21079;-79
2022/11/10 08:57:39;;;;;;;28.65;12.18;;;;;;;7.76;96.00;99907.95;1695179;83;22115;-79
2022/11/10 09:00:24;;;;;;;34.53;13.45;;;;;;;7.84;95.89;99909.21;1694084;83;21016;-80
2022/11/10 09:03:15;;;;;;;30.92;12.73;;;;;;;7.93;95.91;99906.62;1694485;83;21166;-79
2022/11/10 09:06:00;;;;;;;35.78;13.83;;;;;;;7.90;95.04;99902.77;1695935;83;21574;-79
2022/11/10 09:08:45;;;;;;;31.65;12.45;;;;;;;7.85;94.88;99902.75;1692138;83;22237;-79
2022/11/10 09:11:30;;;;;;;27.93;12.15;;;;;;;7.90;95.03;99900.17;1692942;83;21107;-80
2022/11/10 09:14:15;;;;;;;29.60;13.48;;;;;;;7.96;94.51;99906.19;1690124;83;21004;-81
2022/11/10 09:17:01;;;;;;;30.82;11.53;;;;;;;8.02;94.10;99907.91;1691428;83;21036;-80
2022/11/10 09:19:46;;;;;;;32.85;12.33;;;;;;;8.08;93.93;99897.55;1695764;83;21059;-81
2022/11/10 09:22:31;;;;;;;28.52;13.22;;;;;;;8.06;93.53;99900.57;1695330;83;21551;-80
2022/11/10 09:25:16;;;;;;;35.75;12.82;;;;;;;8.07;93.35;99902.28;1669966;83;21015;-80
2022/11/10 09:28:02;;;;;;;35.92;15.70;;;;;;;8.03;93.58;99909.63;1695155;83;21381;-80
2022/11/10 09:30:49;;;;;;;41.35;13.70;;;;;;;8.05;93.74;99906.59;1689322;83;21023;-81
2022/11/10 09:33:34;;;;;;;28.47;11.65;;;;;;;8.15;94.04;99903.12;1693500;83;21031;-80
2022/11/10 09:36:18;;;;;;;26.25;10.23;;;;;;;8.23;94.00;99909.58;1690701;83;21039;-80
2022/11/10 09:39:03;;;;;;;25.43;11.10;;;;;;;8.24;93.25;99911.32;1692448;83;22173;-80
2022/11/10 09:41:48;;;;;;;25.45;11.38;;;;;;;8.24;92.70;99913.06;1687773;83;22241;-79
2022/11/10 09:44:41;;;;;;;25.25;10.58;;;;;;;8.27;92.44;99910.44;1682556;84;21033;-81
2022/11/10 09:47:32;;;;;;;26.10;10.63;;;;;;;8.38;92.75;99913.88;1689705;84;21092;-82
2022/11/10 09:50:21;;;;;;;24.45;10.45;;;;;;;8.49;92.57;99913.41;1681536;84;21042;-79
2022/11/10 09:53:11;;;;;;;28.20;11.78;;;;;;;8.59;91.93;99906.91;1688122;84;21674;-79
2022/11/10 09:56:03;;;;;;;26.85;12.13;;;;;;;8.70;92.37;99907.74;1689637;84;20972;-81
2022/11/10 09:58:49;;;;;;;26.50;11.78;;;;;;;8.74;90.98;99909.01;1685018;84;21044;-80
2022/11/10 10:01:48;;;;;;;28.55;13.00;;;;;;;8.84;91.91;99912.42;1678493;84;21023;-78
2022/11/10 10:04:41;;;;;;;27.93;12.53;;;;;;;8.90;91.63;99901.16;1681606;84;21529;-80
2022/11/10 10:07:49;;;;;;;22.87;11.83;;;;;;;8.89;90.90;99909.38;1687007;84;20981;-82
2022/11/10 10:11:02;;;;;;;24.10;10.88;;;;;;;8.84;90.35;99911.56;1682279;84;21014;-81
2022/11/10 10:14:05;;;;;;;30.73;14.70;;;;;;;8.80;90.86;99913.75;1667740;84;21001;-80
2022/11/10 10:17:19;;;;;;;26.00;12.40;;;;;;;8.69;89.95;99914.63;1688808;83;21044;-79
2022/11/10 10:20:12;;;;;;;28.25;13.43;;;;;;;8.63;89.89;99913.81;1690312;84;21633;-81
2022/11/10 10:23:36;;;;;;;28.30;13.18;;;;;;;8.62;89.93;99909.06;1688263;84;21611;-80
2022/11/10 10:26:31;;;;;;;27.13;10.65;;;;;;;8.68;90.35;99911.63;1684225;84;21044;-80
2022/11/10 10:29:30;;;;;;;26.27;10.50;;;;;;;8.72;90.56;99906.86;1680592;84;21060;-81
2022/11/10 10:32:17;;;;;;;24.23;9.45;;;;;;;8.80;90.60;99912.45;1685262;84;21028;-81
2022/11/10 10:35:02;;;;;;;24.63;10.93;;;;;;;8.85;89.77;99910.68;1688481;84;21056;-78
2022/11/10 10:37:57;;;;;;;24.52;10.78;;;;;;;8.93;89.06;99917.57;1685054;84;21000;-81
2022/11/10 10:40:46;;;;;;;26.90;11.18;;;;;;;9.00;90.65;99917.09;1680843;84;20954;-79
2022/11/10 10:43:32;;;;;;;27.42;11.28;;;;;;;9.07;90.37;99916.61;1680949;84;21493;-80
2022/11/10 10:46:19;;;;;;;26.93;11.63;;;;;;;9.12;89.79;99917.02;1689547;84;21032;-80
2022/11/10 10:49:18;;;;;;;31.45;13.40;;;;;;;9.18;89.88;99913.97;1689420;84;21369;-79
2022/11/10 10:52:12;;;;;;;31.33;14.23;;;;;;;9.20;89.48;99914.38;1687362;84;21102;-78
2022/11/10 10:55:06;;;;;;;33.55;14.83;;;;;;;9.27;89.07;99917.37;1684990;84;21088;-81
2022/11/10 10:57:56;;;;;;;32.98;14.13;;;;;;;9.41;90.10;99911.20;1694319;84;21049;-78
2022/11/10 11:00:45;;;;;;;33.13;13.83;;;;;;;9.34;87.42;99925.97;1678289;84;21027;-79
2022/11/10 11:03:51;;;;;;;38.30;15.70;;;;;;;9.27;88.41;99909.59;1679081;84;21105;-80
2022/11/10 11:06:36;;;;;;;30.12;12.60;;;;;;;9.20;87.65;99915.67;1684358;84;21694;-79
2022/11/10 11:09:28;;;;;;;31.48;14.53;;;;;;;9.17;88.07;99914.38;1691443;84;21346;-79
2022/11/10 11:12:21;;;;;;;33.73;12.98;;;;;;;9.14;88.34;99910.53;1690144;84;21052;-80
2022/11/10 11:15:28;;;;;;;32.33;13.33;;;;;;;9.14;88.37;99917.02;1679466;84;21022;-80
2022/11/10 11:18:16;;;;;;;30.40;12.73;;;;;;;9.14;88.64;99915.27;1684983;84;22666;-79
2022/11/10 11:21:22;;;;;;;28.57;11.95;;;;;;;9.15;88.16;99916.13;1682433;84;22113;-79
2022/11/10 11:24:21;;;;;;;28.92;11.28;;;;;;;9.14;88.14;99911.83;1680168;84;21012;-79
2022/11/10 11:27:33;;;;;;;29.40;12.45;;;;;;;9.15;88.66;99915.71;1687177;84;21477;-79
2022/11/10 11:30:23;;;;;;;30.97;11.85;;;;;;;9.20;89.24;99908.33;1684972;84;21044;-80
2022/11/10 11:33:38;;;;;;;24.98;12.03;;;;;;;9.22;89.54;99911.34;1680257;84;21036;-79
2022/11/10 11:36:41;;;;;;;26.40;11.10;;;;;;;9.24;88.74;99908.30;1684714;84;21595;-80
2022/11/10 11:39:37;;;;;;;35.33;12.47;;;;;;;9.32;89.71;99908.25;1685229;84;21028;-81
2022/11/10 11:43:03;;;;;;;32.10;13.53;;;;;;;9.33;89.05;99915.14;1666561;84;20993;-80
2022/11/10 11:46:06;;;;;;;28.17;11.35;;;;;;;9.35;89.43;99913.40;1662676;85;21041;-80
2022/11/10 11:49:16;;;;;;;32.58;15.05;;;;;;;9.38;89.57;99909.94;1669926;85;21606;-78
2022/11/10 11:52:46;;;;;;;34.70;14.10;;;;;;;9.35;88.74;99909.50;1665463;85;21083;-80
2022/11/10 11:55:54;;;;;;;34.90;14.90;;;;;;;9.41;88.80;99918.58;1669414;85;21012;-80
2022/11/10 11:58:47;;;;;;;39.45;13.93;;;;;;;9.39;89.03;99914.24;1670091;85;21052;-79
2022/11/10 12:01:55;;;;;;;32.98;13.90;;;;;;;9.38;88.67;99917.28;1666569;85;21043;-80
2022/11/10 12:05:11;;;;;;;29.10;12.43;;;;;;;9.30;88.42;99916.03;1670938;85;21104;-80
2022/11/10 12:08:05;;;;;;;40.00;16.40;;;;;;;9.22;88.10;99910.04;1662906;85;20988;-81
2022/11/10 12:10:55;;;;;;;32.78;16.12;;;;;;;9.20;88.41;99909.19;1671272;85;21805;-81
2022/11/10 12:13:48;;;;;;;30.92;13.38;;;;;;;9.20;88.56;99908.33;1673573;85;21023;-80
2022/11/10 12:16:34;;;;;;;29.57;14.00;;;;;;;9.18;88.38;99907.04;1665230;85;21010;-85
2022/11/10 12:19:41;;;;;;;31.17;14.15;;;;;;;9.15;88.61;99915.71;1667453;85;21039;-82
2022/11/10 12:22:50;;;;;;;31.35;12.35;;;;;;;9.16;88.62;99911.38;1669195;85;21108;-79
2022/11/10 12:26:24;;;;;;;33.53;13.72;;;;;;;9.08;88.43;99914.45;1668725;85;21562;-79
2022/11/10 12:29:36;;;;;;;30.70;12.23;;;;;;;9.06;88.58;99914.91;1640129;85;21039;-80
2022/11/10 12:32:30;;;;;;;31.35;12.45;;;;;;;9.03;88.98;99927.47;1665784;85;21047;-80
2022/11/10 12:35:25;;;;;;;32.42;13.70;;;;;;;9.03;89.32;99915.80;1673091;85;21020;-79
2022/11/10 12:38:21;;;;;;;30.45;12.13;;;;;;;9.04;89.41;99916.20;1668722;85;21047;-80
2022/11/10 12:41:13;;;;;;;25.75;11.57;;;;;;;9.03;89.35;99923.98;1670509;85;21051;-81
2022/11/10 12:44:33;;;;;;;26.57;12.68;;;;;;;9.07;89.65;99926.58;1704970;83;21059;-81
2022/11/10 12:47:21;;;;;;;28.73;12.55;;;;;;;9.06;89.56;99923.98;1690540;83;21155;-80
2022/11/10 12:50:20;;;;;;;27.27;12.13;;;;;;;9.03;89.58;99920.98;1703691;82;20964;-81
2022/11/10 12:53:32;;;;;;;26.23;13.53;;;;;;;9.11;89.94;99918.31;1685548;83;22279;-81
2022/11/10 12:56:25;;;;;;;34.13;14.13;;;;;;;9.13;89.92;99912.27;1694671;83;21031;-79
2022/11/10 12:59:21;;;;;;;31.27;15.20;;;;;;;9.18;89.28;99913.97;1701198;82;21297;-79
2022/11/10 13:02:39;;;;;;;30.70;15.13;;;;;;;9.24;89.68;99917.37;1707622;83;21110;-81
2022/11/10 13:05:40;;;;;;;30.25;14.85;;;;;;;9.21;89.37;99920.01;1686058;83;21018;-80
2022/11/10 13:08:43;;;;;;;27.60;12.07;;;;;;;9.20;88.88;99922.61;1685930;83;21024;-80
2022/11/10 13:11:33;;;;;;;25.85;11.28;;;;;;;9.18;88.72;99922.61;1689191;83;21594;-80
2022/11/10 13:14:26;;;;;;;23.65;11.30;;;;;;;9.16;88.51;99925.64;1707114;82;21037;-81
2022/11/10 13:17:28;;;;;;;23.07;11.80;;;;;;;9.12;88.35;99920.05;1705415;82;21041;-80
2022/11/10 13:20:50;;;;;;;22.22;10.90;;;;;;;9.04;88.53;99920.09;1706145;83;21068;-80
2022/11/10 13:23:49;;;;;;;20.20;10.30;;;;;;;9.04;88.62;99930.91;1664387;85;20996;-81
2022/11/10 13:26:45;;;;;;;25.10;11.57;;;;;;;9.01;88.39;99924.42;1688951;84;21697;-80